sensor_id;sensor_type;location;lat;lon;timestamp;temperature;humidity
16578;DHT22;8401;52.528;13.340;2023-12-20T00:02:18;7.10;99.90
16578;DHT22;8401;52.528;13.340;2023-12-20T00:04:44;7.10;99.90
16578;DHT22;8401;52.528;13.340;2023-12-20T00:07:09;7.10;99.90
16578;DHT22;8401;52.528;13.340;2023-12-20T00:09:35;7.10;99.90
16578;DHT22;8401;52.528;13.340;2023-12-20T00:12:00;7.10;99.90
16578;DHT22;8401;52.528;13.340;2023-12-20T00:14:26;7.10;99.90
16578;DHT22;8401;52.528;13.340;2023-12-20T00:16:52;7.10;99.90
16578;DHT22;8401;52.528;13.340;2023-12-20T00:19:17;7.10;99.90
16578;DHT22;8401;52.528;13.340;2023-12-20T00:21:43;7.20;99.90
16578;DHT22;8401;52.528;13.340;2023-12-20T00:24:08;7.10;99.90
16578;DHT22;8401;52.528;13.340;2023-12-20T00:26:34;7.10;99.90
16578;DHT22;8401;52.528;13.340;2023-12-20T00:29:00;7.10;99.90
16578;DHT22;8401;52.528;13.340;2023-12-20T00:31:25;7.10;99.90
16578;DHT22;8401;52.528;13.340;2023-12-20T00:33:51;7.10;99.90
16578;DHT22;8401;52.528;13.340;2023-12-20T00:36:16;7.10;99.90
16578;DHT22;8401;52.528;13.340;2023-12-20T00:38:42;7.10;99.90
16578;DHT22;8401;52.528;13.340;2023-12-20T00:41:08;7.10;99.90
16578;DHT22;8401;52.528;13.340;2023-12-20T00:43:33;7.10;99.90
16578;DHT22;8401;52.528;13.340;2023-12-20T00:45:59;7.10;99.90
16578;DHT22;8401;52.528;13.340;2023-12-20T00:48:25;7.10;99.90
16578;DHT22;8401;52.528;13.340;2023-12-20T00:50:52;7.10;99.90
16578;DHT22;8401;52.528;13.340;2023-12-20T00:53:18;7.10;99.90
16578;DHT22;8401;52.528;13.340;2023-12-20T00:55:44;7.10;99.90
16578;DHT22;8401;52.528;13.340;2023-12-20T00:58:10;7.10;99.90
16578;DHT22;8401;52.528;13.340;2023-12-20T01:00:36;7.10;99.90
16578;DHT22;8401;52.528;13.340;2023-12-20T01:03:01;7.10;99.90
16578;DHT22;8401;52.528;13.340;2023-12-20T01:05:27;7.00;99.90
16578;DHT22;8401;52.528;13.340;2023-12-20T01:07:53;7.00;99.90
16578;DHT22;8401;52.528;13.340;2023-12-20T01:10:18;7.00;99.90
16578;DHT22;8401;52.528;13.340;2023-12-20T01:12:44;7.00;99.90
16578;DHT22;8401;52.528;13.340;2023-12-20T01:15:10;7.00;99.90
16578;DHT22;8401;52.528;13.340;2023-12-20T01:17:35;7.00;99.90
16578;DHT22;8401;52.528;13.340;2023-12-20T01:20:01;7.10;99.90
16578;DHT22;8401;52.528;13.340;2023-12-20T01:22:27;7.00;99.90
16578;DHT22;8401;52.528;13.340;2023-12-20T01:24:53;7.10;99.90
16578;DHT22;8401;52.528;13.340;2023-12-20T01:27:18;7.00;99.90
16578;DHT22;8401;52.528;13.340;2023-12-20T01:29:44;7.00;99.90
16578;DHT22;8401;52.528;13.340;2023-12-20T01:32:10;7.00;99.90
16578;DHT22;8401;52.528;13.340;2023-12-20T01:34:36;7.00;99.90
16578;DHT22;8401;52.528;13.340;2023-12-20T01:37:01;7.00;99.90
16578;DHT22;8401;52.528;13.340;2023-12-20T01:39:28;7.00;99.90
16578;DHT22;8401;52.528;13.340;2023-12-20T01:41:53;6.90;99.90
16578;DHT22;8401;52.528;13.340;2023-12-20T01:44:19;7.00;99.90
16578;DHT22;8401;52.528;13.340;2023-12-20T01:46:45;7.00;99.90
16578;DHT22;8401;52.528;13.340;2023-12-20T01:49:11;7.00;99.90
16578;DHT22;8401;52.528;13.340;2023-12-20T01:51:37;6.90;99.90
16578;DHT22;8401;52.528;13.340;2023-12-20T01:54:04;7.00;99.90
16578;DHT22;8401;52.528;13.340;2023-12-20T01:56:31;6.90;99.90
16578;DHT22;8401;52.528;13.340;2023-12-20T01:58:57;6.90;99.90
16578;DHT22;8401;52.528;13.340;2023-12-20T02:01:23;6.90;99.90
16578;DHT22;8401;52.528;13.340;2023-12-20T02:03:50;7.00;99.90
16578;DHT22;8401;52.528;13.340;2023-12-20T02:06:16;6.90;99.90
16578;DHT22;8401;52.528;13.340;2023-12-20T02:08:43;6.90;99.90
16578;DHT22;8401;52.528;13.340;2023-12-20T02:11:10;6.90;99.90
16578;DHT22;8401;52.528;13.340;2023-12-20T02:13:35;6.90;99.90
16578;DHT22;8401;52.528;13.340;2023-12-20T02:16:01;6.90;99.90
16578;DHT22;8401;52.528;13.340;2023-12-20T02:18:27;6.80;99.90
16578;DHT22;8401;52.528;13.340;2023-12-20T02:20:52;6.80;99.90
16578;DHT22;8401;52.528;13.340;2023-12-20T02:23:18;6.80;99.90
16578;DHT22;8401;52.528;13.340;2023-12-20T02:25:44;6.80;99.90
16578;DHT22;8401;52.528;13.340;2023-12-20T02:28:10;6.90;99.90
16578;DHT22;8401;52.528;13.340;2023-12-20T02:30:36;6.90;99.90
16578;DHT22;8401;52.528;13.340;2023-12-20T02:33:03;6.90;99.90
16578;DHT22;8401;52.528;13.340;2023-12-20T02:35:33;7.00;99.90
16578;DHT22;8401;52.528;13.340;2023-12-20T02:37:59;6.90;99.90
16578;DHT22;8401;52.528;13.340;2023-12-20T02:40:24;6.90;99.90
16578;DHT22;8401;52.528;13.340;2023-12-20T02:42:50;6.90;99.90
16578;DHT22;8401;52.528;13.340;2023-12-20T02:45:15;6.90;99.90
16578;DHT22;8401;52.528;13.340;2023-12-20T02:47:41;6.90;99.90
16578;DHT22;8401;52.528;13.340;2023-12-20T02:50:07;6.90;99.90
16578;DHT22;8401;52.528;13.340;2023-12-20T02:52:32;6.90;99.90
16578;DHT22;8401;52.528;13.340;2023-12-20T02:54:58;7.00;99.90
16578;DHT22;8401;52.528;13.340;2023-12-20T02:57:23;7.00;99.90
16578;DHT22;8401;52.528;13.340;2023-12-20T02:59:49;6.90;99.90
16578;DHT22;8401;52.528;13.340;2023-12-20T03:02:15;6.90;99.90
16578;DHT22;8401;52.528;13.340;2023-12-20T03:04:40;6.90;99.90
16578;DHT22;8401;52.528;13.340;2023-12-20T03:07:06;6.90;99.90
16578;DHT22;8401;52.528;13.340;2023-12-20T03:09:31;7.00;99.90
16578;DHT22;8401;52.528;13.340;2023-12-20T03:11:57;7.00;99.90
16578;DHT22;8401;52.528;13.340;2023-12-20T03:14:23;7.00;99.90
16578;DHT22;8401;52.528;13.340;2023-12-20T03:16:52;7.00;99.90
16578;DHT22;8401;52.528;13.340;2023-12-20T03:19:18;7.00;99.90
16578;DHT22;8401;52.528;13.340;2023-12-20T03:21:44;7.00;99.90
16578;DHT22;8401;52.528;13.340;2023-12-20T03:24:09;6.90;99.90
16578;DHT22;8401;52.528;13.340;2023-12-20T03:26:35;6.90;99.90
16578;DHT22;8401;52.528;13.340;2023-12-20T03:29:01;6.90;99.90
16578;DHT22;8401;52.528;13.340;2023-12-20T03:31:26;6.90;99.90
16578;DHT22;8401;52.528;13.340;2023-12-20T03:33:52;6.90;99.90
16578;DHT22;8401;52.528;13.340;2023-12-20T03:36:19;6.90;99.90
16578;DHT22;8401;52.528;13.340;2023-12-20T03:38:45;6.90;99.90
16578;DHT22;8401;52.528;13.340;2023-12-20T03:41:11;6.80;99.90
16578;DHT22;8401;52.528;13.340;2023-12-20T03:43:37;6.80;99.90
16578;DHT22;8401;52.528;13.340;2023-12-20T03:46:03;6.90;99.90
16578;DHT22;8401;52.528;13.340;2023-12-20T03:48:29;6.80;99.90
16578;DHT22;8401;52.528;13.340;2023-12-20T03:50:55;6.80;99.90
16578;DHT22;8401;52.528;13.340;2023-12-20T03:53:22;6.80;99.90
16578;DHT22;8401;52.528;13.340;2023-12-20T03:55:47;6.70;99.90
16578;DHT22;8401;52.528;13.340;2023-12-20T03:58:13;6.80;99.90
16578;DHT22;8401;52.528;13.340;2023-12-20T04:00:39;6.80;99.90
16578;DHT22;8401;52.528;13.340;2023-12-20T04:03:04;6.80;99.90
16578;DHT22;8401;52.528;13.340;2023-12-20T04:05:30;6.70;99.90
16578;DHT22;8401;52.528;13.340;2023-12-20T04:07:55;6.70;99.90
16578;DHT22;8401;52.528;13.340;2023-12-20T04:10:21;6.70;99.90
16578;DHT22;8401;52.528;13.340;2023-12-20T04:12:46;6.70;99.90
16578;DHT22;8401;52.528;13.340;2023-12-20T04:15:12;6.60;99.90
16578;DHT22;8401;52.528;13.340;2023-12-20T04:17:38;6.70;99.90
16578;DHT22;8401;52.528;13.340;2023-12-20T04:20:04;6.70;99.90
16578;DHT22;8401;52.528;13.340;2023-12-20T04:22:30;6.70;99.90
16578;DHT22;8401;52.528;13.340;2023-12-20T04:24:56;6.60;99.90
16578;DHT22;8401;52.528;13.340;2023-12-20T04:27:21;6.60;99.90
16578;DHT22;8401;52.528;13.340;2023-12-20T04:29:47;6.60;99.90
16578;DHT22;8401;52.528;13.340;2023-12-20T04:32:12;6.60;99.90
16578;DHT22;8401;52.528;13.340;2023-12-20T04:34:38;6.60;99.90
16578;DHT22;8401;52.528;13.340;2023-12-20T04:37:04;6.60;99.90
16578;DHT22;8401;52.528;13.340;2023-12-20T04:39:29;6.50;99.90
16578;DHT22;8401;52.528;13.340;2023-12-20T04:41:55;6.50;99.90
16578;DHT22;8401;52.528;13.340;2023-12-20T04:44:20;6.50;99.90
16578;DHT22;8401;52.528;13.340;2023-12-20T04:46:46;6.50;99.90
16578;DHT22;8401;52.528;13.340;2023-12-20T04:49:11;6.50;99.90
16578;DHT22;8401;52.528;13.340;2023-12-20T04:51:37;6.50;99.90
16578;DHT22;8401;52.528;13.340;2023-12-20T04:54:03;6.50;99.90
16578;DHT22;8401;52.528;13.340;2023-12-20T04:56:29;6.50;99.90
16578;DHT22;8401;52.528;13.340;2023-12-20T04:58:55;6.40;99.90
16578;DHT22;8401;52.528;13.340;2023-12-20T05:01:20;6.40;99.90
16578;DHT22;8401;52.528;13.340;2023-12-20T05:03:46;6.40;99.90
16578;DHT22;8401;52.528;13.340;2023-12-20T05:06:12;6.40;99.90
16578;DHT22;8401;52.528;13.340;2023-12-20T05:08:38;6.40;99.90
16578;DHT22;8401;52.528;13.340;2023-12-20T05:11:04;6.40;99.90
16578;DHT22;8401;52.528;13.340;2023-12-20T05:13:29;6.40;99.90
16578;DHT22;8401;52.528;13.340;2023-12-20T05:15:55;6.40;99.90
16578;DHT22;8401;52.528;13.340;2023-12-20T05:18:21;6.40;99.90
16578;DHT22;8401;52.528;13.340;2023-12-20T05:20:47;6.40;99.90
16578;DHT22;8401;52.528;13.340;2023-12-20T05:23:13;6.30;99.90
16578;DHT22;8401;52.528;13.340;2023-12-20T05:25:39;6.20;99.90
16578;DHT22;8401;52.528;13.340;2023-12-20T05:28:05;6.20;99.90
16578;DHT22;8401;52.528;13.340;2023-12-20T05:30:30;6.10;99.90
16578;DHT22;8401;52.528;13.340;2023-12-20T05:32:56;6.10;99.90
16578;DHT22;8401;52.528;13.340;2023-12-20T05:35:22;6.10;99.90
16578;DHT22;8401;52.528;13.340;2023-12-20T05:37:49;6.10;99.90
16578;DHT22;8401;52.528;13.340;2023-12-20T05:40:15;6.10;99.90
16578;DHT22;8401;52.528;13.340;2023-12-20T05:42:40;6.00;99.90
16578;DHT22;8401;52.528;13.340;2023-12-20T05:45:06;6.00;99.90
16578;DHT22;8401;52.528;13.340;2023-12-20T05:47:32;6.00;99.90
16578;DHT22;8401;52.528;13.340;2023-12-20T05:49:57;6.00;99.90
16578;DHT22;8401;52.528;13.340;2023-12-20T05:52:24;5.90;99.90
16578;DHT22;8401;52.528;13.340;2023-12-20T05:54:49;5.80;99.90
16578;DHT22;8401;52.528;13.340;2023-12-20T05:57:15;5.90;99.90
16578;DHT22;8401;52.528;13.340;2023-12-20T05:59:40;5.90;99.90
16578;DHT22;8401;52.528;13.340;2023-12-20T06:02:06;5.80;99.90
16578;DHT22;8401;52.528;13.340;2023-12-20T06:04:32;5.80;99.90
16578;DHT22;8401;52.528;13.340;2023-12-20T06:06:58;5.80;99.90
16578;DHT22;8401;52.528;13.340;2023-12-20T06:09:23;5.80;99.90
16578;DHT22;8401;52.528;13.340;2023-12-20T06:11:49;5.80;99.90
16578;DHT22;8401;52.528;13.340;2023-12-20T06:14:16;5.80;99.90
16578;DHT22;8401;52.528;13.340;2023-12-20T06:16:42;5.80;99.90
16578;DHT22;8401;52.528;13.340;2023-12-20T06:19:07;5.80;99.90
16578;DHT22;8401;52.528;13.340;2023-12-20T06:21:33;5.80;99.90
16578;DHT22;8401;52.528;13.340;2023-12-20T06:23:59;5.80;99.90
16578;DHT22;8401;52.528;13.340;2023-12-20T06:26:25;5.80;99.90
16578;DHT22;8401;52.528;13.340;2023-12-20T06:28:51;5.70;99.90
16578;DHT22;8401;52.528;13.340;2023-12-20T06:31:16;5.80;99.90
16578;DHT22;8401;52.528;13.340;2023-12-20T06:33:43;5.80;99.90
16578;DHT22;8401;52.528;13.340;2023-12-20T06:36:11;5.80;99.90
16578;DHT22;8401;52.528;13.340;2023-12-20T06:38:38;5.80;99.90
16578;DHT22;8401;52.528;13.340;2023-12-20T06:41:04;5.70;99.90
16578;DHT22;8401;52.528;13.340;2023-12-20T06:43:30;5.70;99.90
16578;DHT22;8401;52.528;13.340;2023-12-20T06:45:56;5.80;99.90
16578;DHT22;8401;52.528;13.340;2023-12-20T06:48:22;5.80;99.90
16578;DHT22;8401;52.528;13.340;2023-12-20T06:50:48;5.70;99.90
16578;DHT22;8401;52.528;13.340;2023-12-20T06:53:13;5.70;99.90
16578;DHT22;8401;52.528;13.340;2023-12-20T06:55:39;5.70;99.90
16578;DHT22;8401;52.528;13.340;2023-12-20T06:58:04;5.80;99.90
16578;DHT22;8401;52.528;13.340;2023-12-20T07:00:31;5.70;99.90
16578;DHT22;8401;52.528;13.340;2023-12-20T07:02:57;5.80;99.90
16578;DHT22;8401;52.528;13.340;2023-12-20T07:05:23;5.80;99.90
16578;DHT22;8401;52.528;13.340;2023-12-20T07:07:48;5.80;99.90
16578;DHT22;8401;52.528;13.340;2023-12-20T07:10:14;5.80;99.90
16578;DHT22;8401;52.528;13.340;2023-12-20T07:12:40;5.80;99.90
16578;DHT22;8401;52.528;13.340;2023-12-20T07:15:05;5.80;99.90
16578;DHT22;8401;52.528;13.340;2023-12-20T07:17:33;5.90;99.90
16578;DHT22;8401;52.528;13.340;2023-12-20T07:19:59;5.80;99.90
16578;DHT22;8401;52.528;13.340;2023-12-20T07:22:31;5.80;99.90
16578;DHT22;8401;52.528;13.340;2023-12-20T07:24:58;5.80;99.90
16578;DHT22;8401;52.528;13.340;2023-12-20T07:27:24;5.90;99.90
16578;DHT22;8401;52.528;13.340;2023-12-20T07:29:49;5.90;99.90
16578;DHT22;8401;52.528;13.340;2023-12-20T07:32:15;5.90;99.90
16578;DHT22;8401;52.528;13.340;2023-12-20T07:34:40;5.90;99.90
16578;DHT22;8401;52.528;13.340;2023-12-20T07:37:06;5.90;99.90
16578;DHT22;8401;52.528;13.340;2023-12-20T07:39:32;5.90;99.90
16578;DHT22;8401;52.528;13.340;2023-12-20T07:41:57;5.90;99.90
16578;DHT22;8401;52.528;13.340;2023-12-20T07:44:23;5.90;99.90
16578;DHT22;8401;52.528;13.340;2023-12-20T07:46:48;5.90;99.90
16578;DHT22;8401;52.528;13.340;2023-12-20T07:49:14;5.90;99.90
16578;DHT22;8401;52.528;13.340;2023-12-20T07:51:40;6.00;99.90
16578;DHT22;8401;52.528;13.340;2023-12-20T07:54:05;6.00;99.90
16578;DHT22;8401;52.528;13.340;2023-12-20T07:56:33;5.90;99.90
16578;DHT22;8401;52.528;13.340;2023-12-20T07:58:59;6.00;99.90
16578;DHT22;8401;52.528;13.340;2023-12-20T08:01:24;6.00;99.90
16578;DHT22;8401;52.528;13.340;2023-12-20T08:03:50;6.00;99.90
16578;DHT22;8401;52.528;13.340;2023-12-20T08:06:16;6.00;99.90
16578;DHT22;8401;52.528;13.340;2023-12-20T08:08:42;6.00;99.90
16578;DHT22;8401;52.528;13.340;2023-12-20T08:11:08;6.00;99.90
16578;DHT22;8401;52.528;13.340;2023-12-20T08:13:34;6.00;99.90
16578;DHT22;8401;52.528;13.340;2023-12-20T08:15:59;6.00;99.90
16578;DHT22;8401;52.528;13.340;2023-12-20T08:18:25;6.10;99.90
16578;DHT22;8401;52.528;13.340;2023-12-20T08:20:50;6.10;99.90
16578;DHT22;8401;52.528;13.340;2023-12-20T08:23:18;6.00;99.90
16578;DHT22;8401;52.528;13.340;2023-12-20T08:25:45;6.00;99.90
16578;DHT22;8401;52.528;13.340;2023-12-20T08:28:11;6.00;99.90
16578;DHT22;8401;52.528;13.340;2023-12-20T08:30:37;6.10;99.90
16578;DHT22;8401;52.528;13.340;2023-12-20T08:33:02;6.10;99.90
16578;DHT22;8401;52.528;13.340;2023-12-20T08:35:28;6.10;99.90
16578;DHT22;8401;52.528;13.340;2023-12-20T08:37:54;6.10;99.90
16578;DHT22;8401;52.528;13.340;2023-12-20T08:40:19;6.10;99.90
16578;DHT22;8401;52.528;13.340;2023-12-20T08:42:45;6.20;99.90
16578;DHT22;8401;52.528;13.340;2023-12-20T08:45:11;6.20;99.90
16578;DHT22;8401;52.528;13.340;2023-12-20T08:47:37;6.20;99.90
16578;DHT22;8401;52.528;13.340;2023-12-20T08:50:03;6.30;99.90
16578;DHT22;8401;52.528;13.340;2023-12-20T08:52:29;6.40;99.90
16578;DHT22;8401;52.528;13.340;2023-12-20T08:54:55;6.30;99.90
16578;DHT22;8401;52.528;13.340;2023-12-20T08:57:21;6.30;99.90
16578;DHT22;8401;52.528;13.340;2023-12-20T08:59:48;6.30;99.90
16578;DHT22;8401;52.528;13.340;2023-12-20T09:02:14;6.40;99.90
16578;DHT22;8401;52.528;13.340;2023-12-20T09:04:40;6.40;99.90
16578;DHT22;8401;52.528;13.340;2023-12-20T09:07:05;6.40;99.90
16578;DHT22;8401;52.528;13.340;2023-12-20T09:09:31;6.40;99.90
16578;DHT22;8401;52.528;13.340;2023-12-20T09:11:57;6.60;99.90
16578;DHT22;8401;52.528;13.340;2023-12-20T09:14:23;6.70;99.90
16578;DHT22;8401;52.528;13.340;2023-12-20T09:16:49;6.70;99.90
16578;DHT22;8401;52.528;13.340;2023-12-20T09:19:17;6.60;99.90
16578;DHT22;8401;52.528;13.340;2023-12-20T09:21:42;6.60;99.90
16578;DHT22;8401;52.528;13.340;2023-12-20T09:24:08;6.60;99.90
16578;DHT22;8401;52.528;13.340;2023-12-20T09:26:34;6.60;99.90
16578;DHT22;8401;52.528;13.340;2023-12-20T09:29:00;6.60;99.90
16578;DHT22;8401;52.528;13.340;2023-12-20T09:31:26;6.60;99.90
16578;DHT22;8401;52.528;13.340;2023-12-20T09:33:52;6.60;99.90
16578;DHT22;8401;52.528;13.340;2023-12-20T09:36:17;6.60;99.90
16578;DHT22;8401;52.528;13.340;2023-12-20T09:38:43;6.60;99.90
16578;DHT22;8401;52.528;13.340;2023-12-20T09:41:09;6.70;99.90
16578;DHT22;8401;52.528;13.340;2023-12-20T09:43:37;6.70;99.90
16578;DHT22;8401;52.528;13.340;2023-12-20T09:46:05;6.60;99.90
16578;DHT22;8401;52.528;13.340;2023-12-20T09:48:32;6.70;99.90
16578;DHT22;8401;52.528;13.340;2023-12-20T09:50:58;6.80;99.90
16578;DHT22;8401;52.528;13.340;2023-12-20T09:53:25;6.80;99.90
16578;DHT22;8401;52.528;13.340;2023-12-20T09:55:58;6.70;99.90
16578;DHT22;8401;52.528;13.340;2023-12-20T09:58:27;6.70;99.90
16578;DHT22;8401;52.528;13.340;2023-12-20T10:00:53;6.80;99.90
16578;DHT22;8401;52.528;13.340;2023-12-20T10:03:25;6.70;99.90
16578;DHT22;8401;52.528;13.340;2023-12-20T10:05:56;6.70;99.90
16578;DHT22;8401;52.528;13.340;2023-12-20T10:08:24;6.80;99.90
16578;DHT22;8401;52.528;13.340;2023-12-20T10:10:50;6.70;99.90
16578;DHT22;8401;52.528;13.340;2023-12-20T10:13:15;6.80;99.90
16578;DHT22;8401;52.528;13.340;2023-12-20T10:15:43;6.80;99.90
16578;DHT22;8401;52.528;13.340;2023-12-20T10:18:09;6.80;99.90
16578;DHT22;8401;52.528;13.340;2023-12-20T10:20:35;6.90;99.90
16578;DHT22;8401;52.528;13.340;2023-12-20T10:23:01;6.80;99.90
16578;DHT22;8401;52.528;13.340;2023-12-20T10:25:26;6.80;99.90
16578;DHT22;8401;52.528;13.340;2023-12-20T10:28:14;6.80;99.90
16578;DHT22;8401;52.528;13.340;2023-12-20T10:30:42;6.80;99.90
16578;DHT22;8401;52.528;13.340;2023-12-20T10:33:09;6.80;99.90
16578;DHT22;8401;52.528;13.340;2023-12-20T10:35:36;6.90;99.90
16578;DHT22;8401;52.528;13.340;2023-12-20T10:38:04;6.90;99.90
16578;DHT22;8401;52.528;13.340;2023-12-20T10:40:30;6.90;99.90
16578;DHT22;8401;52.528;13.340;2023-12-20T10:42:58;6.90;99.90
16578;DHT22;8401;52.528;13.340;2023-12-20T10:45:25;6.90;99.90
16578;DHT22;8401;52.528;13.340;2023-12-20T10:47:51;6.90;99.90
16578;DHT22;8401;52.528;13.340;2023-12-20T10:50:19;6.90;99.90
16578;DHT22;8401;52.528;13.340;2023-12-20T10:52:46;7.00;99.90
16578;DHT22;8401;52.528;13.340;2023-12-20T10:55:12;7.00;99.90
16578;DHT22;8401;52.528;13.340;2023-12-20T10:57:38;7.00;99.90
16578;DHT22;8401;52.528;13.340;2023-12-20T11:00:06;7.00;99.90
16578;DHT22;8401;52.528;13.340;2023-12-20T11:02:39;7.00;99.90
16578;DHT22;8401;52.528;13.340;2023-12-20T11:07:48;7.10;99.90
16578;DHT22;8401;52.528;13.340;2023-12-20T11:10:25;7.10;99.90
16578;DHT22;8401;52.528;13.340;2023-12-20T11:15:25;7.00;99.90
16578;DHT22;8401;52.528;13.340;2023-12-20T11:17:56;7.10;99.90
16578;DHT22;8401;52.528;13.340;2023-12-20T11:20:39;7.10;99.90
16578;DHT22;8401;52.528;13.340;2023-12-20T11:23:05;7.00;99.90
16578;DHT22;8401;52.528;13.340;2023-12-20T11:25:52;7.00;99.90
16578;DHT22;8401;52.528;13.340;2023-12-20T11:28:22;7.10;99.90
16578;DHT22;8401;52.528;13.340;2023-12-20T11:30:54;7.00;99.90
16578;DHT22;8401;52.528;13.340;2023-12-20T11:33:24;6.90;99.90
16578;DHT22;8401;52.528;13.340;2023-12-20T11:35:50;7.00;99.90
16578;DHT22;8401;52.528;13.340;2023-12-20T11:38:16;6.90;99.90
16578;DHT22;8401;52.528;13.340;2023-12-20T11:40:43;6.80;99.90
16578;DHT22;8401;52.528;13.340;2023-12-20T11:43:09;6.90;99.90
16578;DHT22;8401;52.528;13.340;2023-12-20T11:45:35;6.90;99.90
16578;DHT22;8401;52.528;13.340;2023-12-20T11:48:02;7.00;99.90
16578;DHT22;8401;52.528;13.340;2023-12-20T11:50:28;7.00;99.90
16578;DHT22;8401;52.528;13.340;2023-12-20T11:52:55;6.90;99.90
16578;DHT22;8401;52.528;13.340;2023-12-20T11:55:22;6.90;99.90
16578;DHT22;8401;52.528;13.340;2023-12-20T11:57:50;6.90;99.90
16578;DHT22;8401;52.528;13.340;2023-12-20T12:00:16;6.90;99.90
16578;DHT22;8401;52.528;13.340;2023-12-20T12:02:42;7.00;99.90
16578;DHT22;8401;52.528;13.340;2023-12-20T12:05:08;7.10;99.90
16578;DHT22;8401;52.528;13.340;2023-12-20T12:07:34;7.10;99.90
16578;DHT22;8401;52.528;13.340;2023-12-20T12:10:00;7.20;99.90
16578;DHT22;8401;52.528;13.340;2023-12-20T12:12:26;7.10;99.90
16578;DHT22;8401;52.528;13.340;2023-12-20T12:14:53;7.10;99.90
16578;DHT22;8401;52.528;13.340;2023-12-20T12:17:19;7.10;99.90
16578;DHT22;8401;52.528;13.340;2023-12-20T12:19:45;7.10;99.90
16578;DHT22;8401;52.528;13.340;2023-12-20T12:22:15;7.10;99.90
16578;DHT22;8401;52.528;13.340;2023-12-20T12:24:45;7.20;99.90
16578;DHT22;8401;52.528;13.340;2023-12-20T12:27:12;7.10;99.90
16578;DHT22;8401;52.528;13.340;2023-12-20T12:29:38;7.10;99.90
16578;DHT22;8401;52.528;13.340;2023-12-20T12:32:08;7.10;99.90
16578;DHT22;8401;52.528;13.340;2023-12-20T12:34:34;6.90;99.90
16578;DHT22;8401;52.528;13.340;2023-12-20T12:37:01;6.90;99.90
16578;DHT22;8401;52.528;13.340;2023-12-20T12:39:26;6.70;99.90
16578;DHT22;8401;52.528;13.340;2023-12-20T12:41:53;6.60;99.90
16578;DHT22;8401;52.528;13.340;2023-12-20T12:44:19;6.60;99.90
16578;DHT22;8401;52.528;13.340;2023-12-20T12:46:46;6.50;99.90
16578;DHT22;8401;52.528;13.340;2023-12-20T12:49:12;6.50;99.90
16578;DHT22;8401;52.528;13.340;2023-12-20T12:51:38;6.50;99.90
16578;DHT22;8401;52.528;13.340;2023-12-20T12:54:04;6.50;99.90
16578;DHT22;8401;52.528;13.340;2023-12-20T12:56:29;6.50;99.90
16578;DHT22;8401;52.528;13.340;2023-12-20T12:58:55;6.50;99.90
16578;DHT22;8401;52.528;13.340;2023-12-20T13:01:21;6.50;99.90
16578;DHT22;8401;52.528;13.340;2023-12-20T13:03:47;6.50;99.90
16578;DHT22;8401;52.528;13.340;2023-12-20T13:06:13;6.50;99.90
16578;DHT22;8401;52.528;13.340;2023-12-20T13:08:38;6.50;99.90
16578;DHT22;8401;52.528;13.340;2023-12-20T13:11:04;6.50;99.90
16578;DHT22;8401;52.528;13.340;2023-12-20T13:13:30;6.40;99.90
16578;DHT22;8401;52.528;13.340;2023-12-20T13:15:56;6.50;99.90
16578;DHT22;8401;52.528;13.340;2023-12-20T13:18:22;6.40;99.90
16578;DHT22;8401;52.528;13.340;2023-12-20T13:20:49;6.40;99.90
16578;DHT22;8401;52.528;13.340;2023-12-20T13:23:14;6.30;99.90
16578;DHT22;8401;52.528;13.340;2023-12-20T13:25:41;5.90;99.90
16578;DHT22;8401;52.528;13.340;2023-12-20T13:28:07;5.80;99.90
16578;DHT22;8401;52.528;13.340;2023-12-20T13:30:34;5.80;99.90
16578;DHT22;8401;52.528;13.340;2023-12-20T13:32:59;5.80;99.90
16578;DHT22;8401;52.528;13.340;2023-12-20T13:35:25;5.80;99.90
16578;DHT22;8401;52.528;13.340;2023-12-20T13:37:50;5.80;99.90
16578;DHT22;8401;52.528;13.340;2023-12-20T13:40:16;5.80;99.90
16578;DHT22;8401;52.528;13.340;2023-12-20T13:42:42;5.80;99.90
16578;DHT22;8401;52.528;13.340;2023-12-20T13:45:08;5.80;99.90
16578;DHT22;8401;52.528;13.340;2023-12-20T13:47:33;5.80;99.90
16578;DHT22;8401;52.528;13.340;2023-12-20T13:49:59;5.80;99.90
16578;DHT22;8401;52.528;13.340;2023-12-20T13:52:25;5.80;99.90
16578;DHT22;8401;52.528;13.340;2023-12-20T13:54:50;5.80;99.90
16578;DHT22;8401;52.528;13.340;2023-12-20T13:57:16;5.80;99.90
16578;DHT22;8401;52.528;13.340;2023-12-20T13:59:42;5.80;99.90
16578;DHT22;8401;52.528;13.340;2023-12-20T14:02:07;5.80;99.90
16578;DHT22;8401;52.528;13.340;2023-12-20T14:04:33;5.70;99.90
16578;DHT22;8401;52.528;13.340;2023-12-20T14:06:58;5.80;99.90
16578;DHT22;8401;52.528;13.340;2023-12-20T14:09:24;5.80;99.90
16578;DHT22;8401;52.528;13.340;2023-12-20T14:11:50;5.80;99.90
16578;DHT22;8401;52.528;13.340;2023-12-20T14:14:16;5.70;99.90
16578;DHT22;8401;52.528;13.340;2023-12-20T14:16:41;5.70;99.90
16578;DHT22;8401;52.528;13.340;2023-12-20T14:19:11;5.70;99.90
16578;DHT22;8401;52.528;13.340;2023-12-20T14:21:36;5.70;99.90
16578;DHT22;8401;52.528;13.340;2023-12-20T14:24:02;5.70;99.90
16578;DHT22;8401;52.528;13.340;2023-12-20T14:26:30;5.60;99.90
16578;DHT22;8401;52.528;13.340;2023-12-20T14:28:55;5.60;99.90
16578;DHT22;8401;52.528;13.340;2023-12-20T14:31:21;5.60;99.90
16578;DHT22;8401;52.528;13.340;2023-12-20T14:33:49;5.60;99.90
16578;DHT22;8401;52.528;13.340;2023-12-20T14:36:19;5.60;99.90
16578;DHT22;8401;52.528;13.340;2023-12-20T14:38:45;5.60;99.90
16578;DHT22;8401;52.528;13.340;2023-12-20T14:41:12;5.60;99.90
16578;DHT22;8401;52.528;13.340;2023-12-20T14:43:38;5.60;99.90
16578;DHT22;8401;52.528;13.340;2023-12-20T14:46:03;5.60;99.90
16578;DHT22;8401;52.528;13.340;2023-12-20T14:48:31;5.70;99.90
16578;DHT22;8401;52.528;13.340;2023-12-20T14:50:57;5.60;99.90
16578;DHT22;8401;52.528;13.340;2023-12-20T14:53:24;5.70;99.90
16578;DHT22;8401;52.528;13.340;2023-12-20T14:55:50;5.70;99.90
16578;DHT22;8401;52.528;13.340;2023-12-20T14:58:16;5.70;99.90
16578;DHT22;8401;52.528;13.340;2023-12-20T15:00:42;5.70;99.90
16578;DHT22;8401;52.528;13.340;2023-12-20T15:03:09;5.70;99.90
16578;DHT22;8401;52.528;13.340;2023-12-20T15:05:35;5.70;99.90
16578;DHT22;8401;52.528;13.340;2023-12-20T15:08:01;5.70;99.90
16578;DHT22;8401;52.528;13.340;2023-12-20T15:10:27;5.70;99.90
16578;DHT22;8401;52.528;13.340;2023-12-20T15:12:52;5.70;99.90
16578;DHT22;8401;52.528;13.340;2023-12-20T15:15:19;5.70;99.90
16578;DHT22;8401;52.528;13.340;2023-12-20T15:17:45;5.70;99.90
16578;DHT22;8401;52.528;13.340;2023-12-20T15:20:11;5.70;99.90
16578;DHT22;8401;52.528;13.340;2023-12-20T15:22:37;5.70;99.90
16578;DHT22;8401;52.528;13.340;2023-12-20T15:25:03;5.70;99.90
16578;DHT22;8401;52.528;13.340;2023-12-20T15:27:31;5.70;99.90
16578;DHT22;8401;52.528;13.340;2023-12-20T15:29:58;5.60;99.90
16578;DHT22;8401;52.528;13.340;2023-12-20T15:32:24;5.60;99.90
16578;DHT22;8401;52.528;13.340;2023-12-20T15:34:49;5.60;99.90
16578;DHT22;8401;52.528;13.340;2023-12-20T15:37:17;5.50;99.90
16578;DHT22;8401;52.528;13.340;2023-12-20T15:39:43;5.50;99.90
16578;DHT22;8401;52.528;13.340;2023-12-20T15:42:08;5.50;99.90
16578;DHT22;8401;52.528;13.340;2023-12-20T15:44:34;5.50;99.90